createdAt,value
2023-02-04T00:00:30.443Z,103055.31
2023-02-04T00:02:58.110Z,103058.66
2023-02-04T00:05:25.493Z,103047.19
2023-02-04T00:07:52.796Z,103054.97
2023-02-04T00:10:20.487Z,103061.88
2023-02-04T00:12:47.723Z,103069.56
2023-02-04T00:15:15.006Z,103073.88
2023-02-04T00:17:42.442Z,103065.13
2023-02-04T00:20:10.368Z,103065.03
2023-02-04T00:22:37.652Z,103070.09
2023-02-04T00:25:05.315Z,103071.78
2023-02-04T00:27:34.406Z,103077.84
2023-02-04T00:30:01.784Z,103086.59
2023-02-04T00:32:29.048Z,103090.94
2023-02-04T00:34:59.058Z,103084.97
2023-02-04T00:37:26.372Z,103081.56
2023-02-04T00:39:53.764Z,103092.91
2023-02-04T00:42:21.522Z,103096.50
2023-02-04T00:44:48.969Z,103106.19
2023-02-04T00:47:17.746Z,103116.75
2023-02-04T00:49:45.054Z,103112.41
2023-02-04T00:52:12.551Z,103116.81
2023-02-04T00:54:39.843Z,103122.13
2023-02-04T00:57:07.703Z,103115.19
2023-02-04T00:59:35.014Z,103128.34
2023-02-04T01:02:03.075Z,103129.34
2023-02-04T01:04:30.558Z,103136.50
2023-02-04T01:06:58.880Z,103138.28
2023-02-04T01:09:27.252Z,103149.75
2023-02-04T01:11:54.559Z,103159.41
2023-02-04T01:14:22.003Z,103156.78
2023-02-04T01:16:49.370Z,103158.59
2023-02-04T01:19:18.259Z,103162.13
2023-02-04T01:21:45.535Z,103165.63
2023-02-04T01:24:12.862Z,103167.44
2023-02-04T01:26:58.836Z,103166.63
2023-02-04T01:29:26.332Z,103169.25
2023-02-04T01:31:53.851Z,103168.44
2023-02-04T01:34:22.553Z,103164.13
2023-02-04T01:36:51.039Z,103169.44
2023-02-04T01:39:18.455Z,103186.94
2023-02-04T01:41:47.627Z,103188.75
2023-02-04T01:44:14.996Z,103186.03
2023-02-04T01:46:42.489Z,103196.50
2023-02-04T01:49:11.168Z,103199.00
2023-02-04T01:51:39.665Z,103188.34
2023-02-04T01:54:12.103Z,103205.66
2023-02-04T01:56:40.910Z,103210.72
2023-02-04T01:59:16.757Z,103218.38
2023-02-04T02:01:47.013Z,103217.38
2023-02-04T02:04:17.663Z,103226.94
2023-02-04T02:06:50.384Z,103225.84
2023-02-04T02:09:17.771Z,103226.66
2023-02-04T02:11:45.207Z,103230.00
2023-02-04T02:14:12.900Z,103240.34
2023-02-04T02:16:41.049Z,103246.41
2023-02-04T02:19:12.469Z,103253.25
2023-02-04T02:21:46.276Z,103258.38
2023-02-04T02:24:35.433Z,103261.00
2023-02-04T02:27:07.695Z,103267.13
2023-02-04T02:29:36.545Z,103268.75
2023-02-04T02:32:05.251Z,103261.69
2023-02-04T02:34:35.015Z,103260.78
2023-02-04T02:37:04.112Z,103266.03
2023-02-04T02:39:31.709Z,103269.47
2023-02-04T02:42:00.847Z,103265.91
2023-02-04T02:44:29.159Z,103267.53
2023-02-04T02:46:58.492Z,103270.16
2023-02-04T02:49:27.299Z,103271.78
2023-02-04T02:51:54.664Z,103269.06
2023-02-04T02:54:29.621Z,103279.50
2023-02-04T02:57:00.083Z,103271.50
2023-02-04T02:59:28.085Z,103274.78
2023-02-04T03:02:01.363Z,103269.38
2023-02-04T03:04:33.849Z,103272.78
2023-02-04T03:07:02.367Z,103275.41
2023-02-04T03:09:29.976Z,103279.84
2023-02-04T03:11:58.610Z,103293.72
2023-02-04T03:14:26.408Z,103293.59
2023-02-04T03:16:56.025Z,103297.03
2023-02-04T03:19:26.416Z,103299.56
2023-02-04T03:22:02.044Z,103306.28
2023-02-04T03:24:29.747Z,103311.41
2023-02-04T03:27:00.181Z,103307.00
2023-02-04T03:29:29.814Z,103308.63
2023-02-04T03:32:00.138Z,103305.00
2023-02-04T03:34:27.653Z,103316.13
2023-02-04T03:36:55.045Z,103316.03
2023-02-04T03:39:22.312Z,103325.59
2023-02-04T03:41:49.601Z,103326.59
2023-02-04T03:44:16.907Z,103324.81
2023-02-04T03:46:44.491Z,103324.81
2023-02-04T03:49:11.884Z,103335.25
2023-02-04T03:51:39.296Z,103337.94
2023-02-04T03:54:06.732Z,103345.72
2023-02-04T03:56:34.066Z,103346.59
2023-02-04T03:59:01.333Z,103349.94
2023-02-04T04:01:28.642Z,103353.44
2023-02-04T04:03:55.954Z,103352.63
2023-02-04T04:06:24.420Z,103353.44
2023-02-04T04:08:51.961Z,103362.91
2023-02-04T04:11:19.190Z,103365.50
2023-02-04T04:13:46.535Z,103374.97
2023-02-04T04:16:13.988Z,103372.34
2023-02-04T04:18:41.312Z,103377.56
2023-02-04T04:21:08.693Z,103372.25
2023-02-04T04:23:36.094Z,103379.97
2023-02-04T04:26:03.727Z,103385.97
2023-02-04T04:28:31.349Z,103391.13
2023-02-04T04:31:01.906Z,103393.75
2023-02-04T04:33:29.281Z,103392.81
2023-02-04T04:35:58.729Z,103394.44
2023-02-04T04:38:26.134Z,103402.16
2023-02-04T04:40:53.630Z,103402.16
2023-02-04T04:43:22.066Z,103405.59
2023-02-04T04:45:49.421Z,103414.31
2023-02-04T04:48:16.915Z,103410.81
2023-02-04T04:50:44.362Z,103412.59
2023-02-04T04:53:11.653Z,103423.75
2023-02-04T04:55:38.980Z,103416.75
2023-02-04T04:58:07.935Z,103418.34
2023-02-04T05:00:35.303Z,103420.16
2023-02-04T05:03:02.797Z,103413.13
2023-02-04T05:05:32.271Z,103409.47
2023-02-04T05:07:59.772Z,103409.41
2023-02-04T05:10:27.099Z,103421.53
2023-02-04T05:12:54.335Z,103425.88
2023-02-04T05:15:23.042Z,103431.97
2023-02-04T05:17:50.327Z,103437.03
2023-02-04T05:20:17.978Z,103453.47
2023-02-04T05:22:45.196Z,103460.41
2023-02-04T05:25:12.564Z,103460.31
2023-02-04T05:27:40.015Z,103461.13
2023-02-04T05:30:07.936Z,103462.69
2023-02-04T05:32:35.240Z,103462.63
2023-02-04T05:35:05.118Z,103467.72
2023-02-04T05:37:34.443Z,103473.75
2023-02-04T05:40:02.170Z,103474.56
2023-02-04T05:42:29.685Z,103477.84
2023-02-04T05:44:59.763Z,103475.03
2023-02-04T05:47:27.095Z,103483.53
2023-02-04T05:49:54.848Z,103482.41
2023-02-04T05:52:22.169Z,103493.78
2023-02-04T05:54:49.390Z,103496.19
2023-02-04T05:57:16.830Z,103499.59
2023-02-04T05:59:44.245Z,103501.09
2023-02-04T06:02:12.807Z,103496.44
2023-02-04T06:04:40.976Z,103494.50
2023-02-04T06:07:08.276Z,103501.34
2023-02-04T06:09:35.678Z,103510.75
2023-02-04T06:12:03.156Z,103519.28
2023-02-04T06:14:30.427Z,103513.06
2023-02-04T06:16:59.826Z,103522.56
2023-02-04T06:19:27.613Z,103523.38
2023-02-04T06:21:54.869Z,103526.78
2023-02-04T06:24:22.146Z,103530.19
2023-02-04T06:26:49.455Z,103536.19
2023-02-04T06:29:16.745Z,103533.47
2023-02-04T06:31:45.780Z,103537.03
2023-02-04T06:34:13.330Z,103538.69
2023-02-04T06:36:41.283Z,103532.34
2023-02-04T06:39:08.633Z,103534.97
2023-02-04T06:41:35.978Z,103561.88
2023-02-04T06:44:03.451Z,103557.31
2023-02-04T06:46:31.124Z,103561.44
2023-02-04T06:48:58.830Z,103563.03
2023-02-04T06:51:26.448Z,103559.38
2023-02-04T06:53:53.742Z,103570.72
2023-02-04T06:56:21.994Z,103575.03
2023-02-04T06:58:49.240Z,103569.72
2023-02-04T07:01:16.926Z,103581.06
2023-02-04T07:03:44.226Z,103586.16
2023-02-04T07:06:11.490Z,103577.56
2023-02-04T07:08:38.762Z,103596.03
2023-02-04T07:11:06.108Z,103595.91
2023-02-04T07:13:33.531Z,103607.16
2023-02-04T07:16:00.961Z,103607.16
2023-02-04T07:18:28.230Z,103614.97
2023-02-04T07:20:55.546Z,103611.47
2023-02-04T07:23:24.479Z,103611.47
2023-02-04T07:25:56.567Z,103617.59
2023-02-04T07:28:23.949Z,103620.97
2023-02-04T07:30:51.394Z,103618.28
2023-02-04T07:33:18.870Z,103629.38
2023-02-04T07:35:46.337Z,103624.97
2023-02-04T07:38:13.852Z,103632.69
2023-02-04T07:40:41.100Z,103632.00
2023-02-04T07:43:08.489Z,103636.56
2023-02-04T07:45:35.944Z,103656.38
2023-02-04T07:48:03.459Z,103642.53
2023-02-04T07:50:31.214Z,103649.59
2023-02-04T07:52:58.842Z,103644.38
2023-02-04T07:55:26.134Z,103648.66
2023-02-04T07:57:53.564Z,103651.41
2023-02-04T08:00:21.020Z,103654.13
2023-02-04T08:02:48.673Z,103649.03
2023-02-04T08:05:16.118Z,103656.84
2023-02-04T08:07:43.444Z,103655.16
2023-02-04T08:10:11.535Z,103650.63
2023-02-04T08:12:39.236Z,103663.75
2023-02-04T08:15:08.772Z,103669.91
2023-02-04T08:17:36.358Z,103668.44
2023-02-04T08:20:04.349Z,103675.56
2023-02-04T08:22:31.781Z,103678.31
2023-02-04T08:24:59.026Z,103678.50
2023-02-04T08:27:26.442Z,103683.84
2023-02-04T08:29:55.255Z,103678.88
2023-02-04T08:32:23.061Z,103681.59
2023-02-04T08:34:50.748Z,103690.34
2023-02-04T08:37:18.038Z,103700.22
2023-02-04T08:39:46.476Z,103691.69
2023-02-04T08:42:13.891Z,103690.22
2023-02-04T08:44:41.582Z,103700.56
2023-02-04T08:47:09.951Z,103687.41
2023-02-04T08:49:37.752Z,103692.81
2023-02-04T08:52:06.694Z,103693.75
2023-02-04T08:54:35.511Z,103695.56
2023-02-04T08:57:02.911Z,103705.34
2023-02-04T08:59:30.228Z,103699.41
2023-02-04T09:01:58.870Z,103710.88
2023-02-04T09:04:26.340Z,103712.03
2023-02-04T09:06:54.137Z,103707.81
2023-02-04T09:09:26.164Z,103709.84
2023-02-04T09:11:53.737Z,103710.09
2023-02-04T09:14:21.021Z,103715.63
2023-02-04T09:16:49.349Z,103714.41
2023-02-04T09:19:19.501Z,103712.22
2023-02-04T09:21:46.809Z,103720.50
2023-02-04T09:24:14.064Z,103725.97
2023-02-04T09:26:41.417Z,103729.13
2023-02-04T09:29:08.770Z,103733.78
2023-02-04T09:31:36.069Z,103732.41
2023-02-04T09:34:03.387Z,103738.78
2023-02-04T09:36:32.773Z,103734.44
2023-02-04T09:39:00.271Z,103743.06
2023-02-04T09:41:27.840Z,103752.75
2023-02-04T09:43:55.048Z,103760.69
2023-02-04T09:46:25.126Z,103760.34
2023-02-04T09:48:52.507Z,103764.28
2023-02-04T09:51:26.717Z,103765.66
2023-02-04T09:54:02.950Z,103768.59
2023-02-04T09:56:30.875Z,103757.78
2023-02-04T09:58:58.203Z,103761.25
2023-02-04T10:01:28.373Z,103761.00
2023-02-04T10:04:01.346Z,103763.25
2023-02-04T10:06:29.083Z,103765.38
2023-02-04T10:08:57.402Z,103779.25
2023-02-04T10:11:27.609Z,103775.50
2023-02-04T10:13:56.448Z,103780.72
2023-02-04T10:16:30.970Z,103770.06
2023-02-04T10:19:02.077Z,103774.19
2023-02-04T10:21:36.821Z,103781.13
2023-02-04T10:24:10.518Z,103781.13
2023-02-04T10:26:37.975Z,103783.75
2023-02-04T10:29:09.709Z,103785.34
2023-02-04T10:31:40.075Z,103793.09
2023-02-04T10:34:33.388Z,103787.84
2023-02-04T10:37:01.257Z,103793.41
2023-02-04T10:39:30.389Z,103796.44
2023-02-04T10:42:01.746Z,103798.50
2023-02-04T10:44:35.993Z,103801.41
2023-02-04T10:47:06.209Z,103802.44
2023-02-04T10:49:34.104Z,103803.56
2023-02-04T10:52:03.666Z,103792.19
2023-02-04T10:54:38.845Z,103800.16
2023-02-04T10:57:12.355Z,103797.84
2023-02-04T10:59:40.328Z,103792.00
2023-02-04T11:02:38.430Z,103798.53
2023-02-04T11:05:17.204Z,103794.53
2023-02-04T11:07:46.305Z,103802.44
2023-02-04T11:10:31.161Z,103791.59
2023-02-04T11:12:58.769Z,103795.22
2023-02-04T11:15:51.010Z,103787.72
2023-02-04T11:18:21.460Z,103786.88
2023-02-04T11:20:50.483Z,103783.47
2023-02-04T11:23:26.984Z,103782.78
2023-02-04T11:26:19.212Z,103775.91
2023-02-04T11:28:51.244Z,103783.41
2023-02-04T11:31:24.563Z,103787.44
2023-02-04T11:34:03.165Z,103793.09
2023-02-04T11:36:30.836Z,103791.38
2023-02-04T11:39:13.494Z,103790.88
2023-02-04T11:41:45.152Z,103792.28
2023-02-04T11:44:14.151Z,103780.53
2023-02-04T11:46:41.622Z,103790.00
2023-02-04T11:49:20.754Z,103790.00
2023-02-04T11:51:48.119Z,103786.97
2023-02-04T11:54:22.130Z,103794.50
2023-02-04T11:56:52.971Z,103786.94
2023-02-04T11:59:22.052Z,103787.56
2023-02-04T12:01:49.358Z,103786.34
2023-02-04T12:04:24.705Z,103794.34
2023-02-04T12:07:03.654Z,103797.47
2023-02-04T12:09:32.708Z,103794.84
2023-02-04T12:12:02.237Z,103794.22
2023-02-04T12:14:33.871Z,103792.50
2023-02-04T12:17:01.234Z,103784.53
2023-02-04T12:19:28.556Z,103786.75
2023-02-04T12:21:55.972Z,103783.25
2023-02-04T12:24:24.345Z,103783.94
2023-02-04T12:26:51.894Z,103775.47
2023-02-04T12:29:19.492Z,103787.78
2023-02-04T12:31:46.965Z,103779.13
2023-02-04T12:34:14.464Z,103782.31
2023-02-04T12:36:41.869Z,103790.09
2023-02-04T12:39:10.607Z,103786.44
2023-02-04T12:41:37.888Z,103788.06
2023-02-04T12:44:05.252Z,103789.00
2023-02-04T12:46:33.546Z,103790.00
2023-02-04T12:49:00.897Z,103786.44
2023-02-04T12:51:28.457Z,103792.72
2023-02-04T12:53:55.761Z,103798.25
2023-02-04T12:56:24.215Z,103786.97
2023-02-04T12:58:51.563Z,103787.38
2023-02-04T13:01:18.898Z,103779.91
2023-02-04T13:03:46.303Z,103782.84
2023-02-04T13:06:13.502Z,103783.22
2023-02-04T13:08:41.166Z,103779.25
2023-02-04T13:11:08.518Z,103780.69
2023-02-04T13:13:35.784Z,103774.50
2023-02-04T13:16:03.187Z,103772.81
2023-02-04T13:18:30.690Z,103778.22
2023-02-04T13:20:57.957Z,103782.69
2023-02-04T13:23:25.400Z,103771.97
2023-02-04T13:25:52.814Z,103780.75
2023-02-04T13:28:23.253Z,103775.13
2023-02-04T13:30:50.509Z,103781.88
2023-02-04T13:33:18.273Z,103790.38
2023-02-04T13:35:46.644Z,103781.28
2023-02-04T13:38:13.819Z,103777.47
2023-02-04T13:40:41.152Z,103779.91
2023-02-04T13:43:08.543Z,103774.94
2023-02-04T13:45:36.140Z,103778.69
2023-02-04T13:48:03.600Z,103773.56
2023-02-04T13:50:31.251Z,103780.00
2023-02-04T13:52:58.764Z,103773.66
2023-02-04T13:55:26.441Z,103774.34
2023-02-04T13:57:53.896Z,103784.63
2023-02-04T14:00:21.388Z,103782.19
2023-02-04T14:02:48.950Z,103782.13
2023-02-04T14:05:16.595Z,103787.34
2023-02-04T14:07:43.907Z,103783.91
2023-02-04T14:10:11.175Z,103784.72
2023-02-04T14:12:38.697Z,103787.34
2023-02-04T14:15:06.188Z,103791.66
2023-02-04T14:17:33.581Z,103796.78
2023-02-04T14:20:00.884Z,103790.66
2023-02-04T14:22:28.331Z,103780.00
2023-02-04T14:24:55.638Z,103781.50
2023-02-04T14:27:23.226Z,103782.78
2023-02-04T14:29:50.528Z,103783.47
2023-02-04T14:32:18.162Z,103784.16
2023-02-04T14:34:45.723Z,103778.91
2023-02-04T14:37:13.138Z,103787.59
2023-02-04T14:39:40.543Z,103787.38
2023-02-04T14:42:07.913Z,103793.53
2023-02-04T14:44:35.197Z,103789.88
2023-02-04T14:47:02.509Z,103782.84
2023-02-04T14:49:29.906Z,103785.56
2023-02-04T14:51:57.424Z,103780.13
2023-02-04T14:54:24.747Z,103795.84
2023-02-04T14:56:53.017Z,103797.66
2023-02-04T14:59:20.546Z,103794.94
2023-02-04T15:01:47.913Z,103804.41
2023-02-04T15:04:15.912Z,103810.31
2023-02-04T15:06:43.277Z,103805.88
2023-02-04T15:09:10.536Z,103808.16
2023-02-04T15:11:38.042Z,103811.59
2023-02-04T15:14:05.527Z,103812.31
2023-02-04T15:16:33.126Z,103810.47
2023-02-04T15:19:00.475Z,103818.06
2023-02-04T15:21:27.802Z,103813.53
2023-02-04T15:23:55.037Z,103818.47
2023-02-04T15:26:22.513Z,103812.31
2023-02-04T15:28:49.851Z,103807.66
2023-02-04T15:31:17.214Z,103814.38
2023-02-04T15:33:44.542Z,103820.31
2023-02-04T15:36:11.790Z,103820.91
2023-02-04T15:38:39.301Z,103818.78
2023-02-04T15:41:07.225Z,103821.03
2023-02-04T15:43:34.551Z,103821.41
2023-02-04T15:46:02.080Z,103820.19
2023-02-04T15:48:29.397Z,103816.31
2023-02-04T15:50:56.877Z,103822.91
2023-02-04T15:53:24.736Z,103825.22
2023-02-04T15:55:52.032Z,103826.59
2023-02-04T15:58:19.284Z,103823.75
2023-02-04T16:00:46.500Z,103826.84
2023-02-04T16:03:13.808Z,103830.56
2023-02-04T16:05:41.085Z,103832.06
2023-02-04T16:08:08.433Z,103839.56
2023-02-04T16:10:36.014Z,103842.53
2023-02-04T16:13:03.445Z,103845.72
2023-02-04T16:15:30.874Z,103855.72
2023-02-04T16:18:00.269Z,103852.75
2023-02-04T16:20:27.473Z,103858.53
2023-02-04T16:22:55.022Z,103858.84
2023-02-04T16:25:23.844Z,103860.19
2023-02-04T16:27:51.233Z,103863.25
2023-02-04T16:30:18.677Z,103856.00
2023-02-04T16:32:46.171Z,103860.06
2023-02-04T16:35:16.652Z,103853.72
2023-02-04T16:37:44.097Z,103858.47
2023-02-04T16:40:13.526Z,103856.28
2023-02-04T16:42:41.055Z,103864.44
2023-02-04T16:45:09.000Z,103857.03
2023-02-04T16:47:36.319Z,103853.19
2023-02-04T16:50:04.394Z,103849.31
2023-02-04T16:52:32.152Z,103850.53
2023-02-04T16:54:59.589Z,103856.97
2023-02-04T16:57:27.082Z,103843.56
2023-02-04T16:59:54.390Z,103839.56
2023-02-04T17:02:22.189Z,103847.03
2023-02-04T17:04:49.770Z,103851.63
2023-02-04T17:07:17.130Z,103851.28
2023-02-04T17:09:44.336Z,103858.50
2023-02-04T17:12:11.635Z,103856.56
2023-02-04T17:14:41.315Z,103850.97
2023-02-04T17:17:08.650Z,103848.13
2023-02-04T17:19:35.924Z,103840.94
2023-02-04T17:22:03.185Z,103848.41
2023-02-04T17:24:30.399Z,103842.94
2023-02-04T17:27:00.704Z,103846.09
2023-02-04T17:29:28.123Z,103838.00
2023-02-04T17:31:56.750Z,103838.56
2023-02-04T17:34:24.319Z,103840.13
2023-02-04T17:36:51.575Z,103837.16
2023-02-04T17:39:18.979Z,103844.84
2023-02-04T17:41:46.204Z,103847.06
2023-02-04T17:44:19.025Z,103845.28
2023-02-04T17:46:46.557Z,103846.03
2023-02-04T17:49:14.054Z,103859.88
2023-02-04T17:51:41.309Z,103852.59
2023-02-04T17:54:11.966Z,103856.88
2023-02-04T17:56:39.360Z,103865.22
2023-02-04T17:59:11.202Z,103869.41
2023-02-04T18:01:42.233Z,103869.94
2023-02-04T18:04:13.982Z,103859.25
2023-02-04T18:06:41.392Z,103863.28
2023-02-04T18:09:15.333Z,103868.41
2023-02-04T18:11:43.216Z,103867.59
2023-02-04T18:14:17.914Z,103867.59
2023-02-04T18:16:45.733Z,103869.44
2023-02-04T18:19:22.133Z,103871.25
2023-02-04T18:21:49.874Z,103880.09
2023-02-04T18:24:30.199Z,103869.94
2023-02-04T18:27:02.256Z,103870.31
2023-02-04T18:29:37.631Z,103864.56
2023-02-04T18:32:20.386Z,103874.56
2023-02-04T18:34:53.563Z,103859.34
2023-02-04T18:37:26.769Z,103867.50
2023-02-04T18:39:58.282Z,103875.72
2023-02-04T18:42:27.028Z,103865.66
2023-02-04T18:44:56.836Z,103865.09
2023-02-04T18:47:32.035Z,103860.16
2023-02-04T18:50:00.999Z,103860.41
2023-02-04T18:52:37.050Z,103861.44
2023-02-04T18:55:26.065Z,103860.78
2023-02-04T18:57:53.579Z,103860.91
2023-02-04T19:00:33.077Z,103872.38
2023-02-04T19:03:29.576Z,103862.97
2023-02-04T19:06:02.031Z,103858.66
2023-02-04T19:08:50.346Z,103855.00
2023-02-04T19:11:38.976Z,103852.28
2023-02-04T19:14:18.680Z,103858.41
2023-02-04T19:16:47.134Z,103862.69
2023-02-04T19:19:33.351Z,103862.59
2023-02-04T19:22:01.169Z,103846.16
2023-02-04T19:24:29.918Z,103842.66
2023-02-04T19:27:02.234Z,103838.34
2023-02-04T19:29:37.604Z,103843.56
2023-02-04T19:32:27.665Z,103842.91
2023-02-04T19:34:59.706Z,103836.00
2023-02-04T19:37:37.699Z,103836.88
2023-02-04T19:40:37.463Z,103845.75
2023-02-04T19:43:07.845Z,103844.84
2023-02-04T19:45:35.428Z,103844.84
2023-02-04T19:48:20.515Z,103850.72
2023-02-04T19:50:47.847Z,103849.16
2023-02-04T19:53:27.170Z,103845.59
2023-02-04T19:55:54.766Z,103839.50
2023-02-04T19:58:22.286Z,103836.00
2023-02-04T20:01:05.485Z,103840.16
2023-02-04T20:03:42.540Z,103840.94
2023-02-04T20:06:09.803Z,103838.22
2023-02-04T20:08:37.849Z,103831.97
2023-02-04T20:11:52.841Z,103832.50
2023-02-04T20:14:22.582Z,103830.59
2023-02-04T20:16:54.646Z,103838.13
2023-02-04T20:19:33.662Z,103836.22
2023-02-04T20:22:24.916Z,103834.91
2023-02-04T20:24:59.125Z,103836.50
2023-02-04T20:27:33.043Z,103837.16
2023-02-04T20:30:21.760Z,103842.25
2023-02-04T20:32:54.328Z,103834.44
2023-02-04T20:35:27.398Z,103841.34
2023-02-04T20:37:57.971Z,103843.16
2023-02-04T20:40:31.879Z,103837.94
2023-02-04T20:43:16.299Z,103838.84
2023-02-04T20:45:51.085Z,103830.25
2023-02-04T20:48:18.362Z,103831.16
2023-02-04T20:50:46.378Z,103829.44
2023-02-04T20:53:22.657Z,103833.13
2023-02-04T20:55:57.521Z,103825.31
2023-02-04T20:58:28.001Z,103817.47
2023-02-04T21:00:56.124Z,103818.50
2023-02-04T21:03:35.540Z,103808.97
2023-02-04T21:06:16.209Z,103808.09
2023-02-04T21:08:49.479Z,103811.59
2023-02-04T21:11:16.900Z,103803.63
2023-02-04T21:13:44.887Z,103805.47
2023-02-04T21:16:12.522Z,103808.09
2023-02-04T21:18:40.467Z,103805.47
2023-02-04T21:21:10.368Z,103802.88
2023-02-04T21:23:38.676Z,103795.81
2023-02-04T21:26:08.920Z,103793.09
2023-02-04T21:28:36.516Z,103802.75
2023-02-04T21:31:04.537Z,103809.75
2023-02-04T21:33:34.168Z,103805.34
2023-02-04T21:36:01.507Z,103802.88
2023-02-04T21:38:28.793Z,103806.25
2023-02-04T21:40:56.398Z,103805.34
2023-02-04T21:43:23.806Z,103802.88
2023-02-04T21:45:51.091Z,103802.97
2023-02-04T21:48:18.559Z,103811.59
2023-02-04T21:50:45.967Z,103808.09
2023-02-04T21:53:13.277Z,103803.63
2023-02-04T21:55:41.189Z,103801.94
2023-02-04T21:58:08.973Z,103795.81
2023-02-04T22:00:37.301Z,103797.41
2023-02-04T22:03:04.844Z,103800.91
2023-02-04T22:05:32.876Z,103793.88
2023-02-04T22:08:00.280Z,103787.75
2023-02-04T22:10:28.192Z,103791.28
2023-02-04T22:12:55.714Z,103786.97
2023-02-04T22:15:24.618Z,103785.28
2023-02-04T22:17:53.361Z,103791.41
2023-02-04T22:20:22.971Z,103786.06
2023-02-04T22:22:50.356Z,103786.84
2023-02-04T22:25:19.529Z,103788.69
2023-02-04T22:27:47.411Z,103786.19
2023-02-04T22:30:17.656Z,103780.06
2023-02-04T22:32:45.031Z,103777.56
2023-02-04T22:35:12.870Z,103778.38
2023-02-04T22:37:42.057Z,103769.63
2023-02-04T22:40:12.018Z,103761.03
2023-02-04T22:42:39.723Z,103772.38
2023-02-04T22:45:08.087Z,103777.44
2023-02-04T22:47:37.417Z,103786.19
2023-02-04T22:50:05.584Z,103776.69
2023-02-04T22:52:32.977Z,103782.03
2023-02-04T22:55:00.543Z,103778.59
2023-02-04T22:57:27.778Z,103784.63
2023-02-04T22:59:55.232Z,103779.41
2023-02-04T23:02:22.573Z,103776.81
2023-02-04T23:04:49.960Z,103768.97
2023-02-04T23:07:23.776Z,103770.78
2023-02-04T23:09:51.327Z,103766.38
2023-02-04T23:12:18.991Z,103747.19
2023-02-04T23:14:48.807Z,103734.97
2023-02-04T23:17:17.592Z,103728.84
2023-02-04T23:19:45.897Z,103727.94
2023-02-04T23:22:13.923Z,103734.06
2023-02-04T23:24:42.216Z,103736.56
2023-02-04T23:27:11.598Z,103733.00
2023-02-04T23:29:39.777Z,103723.25
2023-02-04T23:32:07.355Z,103723.13
2023-02-04T23:34:38.288Z,103723.00
2023-02-04T23:37:05.925Z,103703.88
2023-02-04T23:39:33.279Z,103706.47
2023-02-04T23:42:00.735Z,103688.78
2023-02-04T23:44:28.150Z,103689.56
2023-02-04T23:46:55.708Z,103700.66
2023-02-04T23:49:23.382Z,103686.59
2023-02-04T23:51:50.718Z,103676.94
2023-02-04T23:54:17.961Z,103669.81
2023-02-04T23:56:45.293Z,103666.19
2023-02-04T23:59:12.698Z,103671.41
